createdAt,value
2022-09-15T00:01:58.880Z,67.76
2022-09-15T00:07:04.413Z,68.38
2022-09-15T00:12:13.211Z,67.77
2022-09-15T00:17:18.160Z,68.52
2022-09-15T00:22:22.845Z,70.15
2022-09-15T00:27:29.499Z,70.11
2022-09-15T00:32:34.042Z,70.04
2022-09-15T00:37:38.052Z,68.99
2022-09-15T00:42:43.468Z,68.79
2022-09-15T00:47:48.287Z,69.34
2022-09-15T00:52:59.594Z,69.31
2022-09-15T00:58:07.784Z,70.45
2022-09-15T01:03:11.788Z,70.57
2022-09-15T01:08:20.475Z,70.66
2022-09-15T01:13:26.836Z,70.65
2022-09-15T01:18:41.206Z,70.77
2022-09-15T01:24:30.557Z,70.38
2022-09-15T01:29:49.224Z,70.18
2022-09-15T01:35:00.588Z,70.01
2022-09-15T01:40:06.200Z,70.17
2022-09-15T01:45:16.806Z,69.97
2022-09-15T01:50:25.580Z,70.12
2022-09-15T01:55:34.010Z,71.82
2022-09-15T02:00:44.911Z,70.88
2022-09-15T02:05:56.202Z,70.34
2022-09-15T02:11:11.792Z,71.72
2022-09-15T02:16:21.136Z,71.99
2022-09-15T02:21:31.753Z,70.06
2022-09-15T02:26:39.727Z,70.36
2022-09-15T02:31:47.313Z,70.77
2022-09-15T02:36:53.448Z,69.99
2022-09-15T02:41:57.559Z,70.07
2022-09-15T02:47:03.955Z,70.42
2022-09-15T02:52:07.843Z,70.07
2022-09-15T02:57:11.783Z,69.70
2022-09-15T03:02:20.442Z,70.01
2022-09-15T03:07:25.002Z,70.42
2022-09-15T03:12:29.090Z,70.45
2022-09-15T03:17:37.123Z,69.92
2022-09-15T03:22:40.965Z,71.19
2022-09-15T03:27:45.011Z,72.57
2022-09-15T03:32:50.393Z,73.11
2022-09-15T03:37:54.267Z,71.80
2022-09-15T03:42:58.385Z,72.04
2022-09-15T03:48:04.581Z,74.33
2022-09-15T03:53:11.049Z,72.77
2022-09-15T03:58:14.964Z,72.29
2022-09-15T04:03:20.328Z,73.13
2022-09-15T04:08:24.536Z,73.26
2022-09-15T04:13:28.861Z,72.88
2022-09-15T04:18:34.272Z,71.98
2022-09-15T04:23:38.225Z,72.37
2022-09-15T04:28:42.170Z,73.30
2022-09-15T04:33:48.443Z,72.85
2022-09-15T04:38:52.872Z,72.18
2022-09-15T04:43:57.088Z,71.33
2022-09-15T04:49:02.556Z,72.68
2022-09-15T04:54:07.933Z,72.98
2022-09-15T04:59:15.758Z,72.69
2022-09-15T05:04:21.395Z,71.43
2022-09-15T05:09:26.655Z,70.79
2022-09-15T05:14:31.621Z,70.64
2022-09-15T05:19:37.004Z,71.17
2022-09-15T05:24:41.559Z,72.21
2022-09-15T05:29:45.921Z,71.66
2022-09-15T05:34:52.487Z,70.34
2022-09-15T05:39:59.551Z,71.13
2022-09-15T05:45:03.548Z,70.32
2022-09-15T05:50:09.672Z,70.05
2022-09-15T05:55:14.273Z,70.52
2022-09-15T06:00:19.060Z,69.79
2022-09-15T06:05:24.630Z,69.32
2022-09-15T06:10:28.591Z,69.13
2022-09-15T06:15:33.438Z,68.76
2022-09-15T06:20:38.745Z,67.57
2022-09-15T06:25:42.757Z,66.09
2022-09-15T06:30:49.590Z,65.09
2022-09-15T06:35:54.891Z,64.25
2022-09-15T06:40:59.645Z,62.02
2022-09-15T06:46:06.080Z,61.30
2022-09-15T06:51:14.206Z,60.15
2022-09-15T06:56:19.708Z,60.05
2022-09-15T07:01:28.246Z,58.10
2022-09-15T07:06:34.736Z,55.96
2022-09-15T07:11:38.760Z,54.87
2022-09-15T07:16:43.382Z,54.06
2022-09-15T07:21:48.681Z,52.03
2022-09-15T07:26:52.612Z,52.20
2022-09-15T07:31:57.735Z,49.83
2022-09-15T07:37:03.072Z,48.57
2022-09-15T07:42:08.146Z,48.00
2022-09-15T07:47:12.023Z,47.28
2022-09-15T07:52:17.381Z,45.43
2022-09-15T07:57:21.298Z,44.43
2022-09-15T08:02:25.261Z,43.61
2022-09-15T08:07:30.731Z,42.26
2022-09-15T08:12:34.690Z,40.50
2022-09-15T08:17:38.595Z,38.85
2022-09-15T08:22:45.585Z,37.61
2022-09-15T08:27:49.569Z,34.34
2022-09-15T08:32:53.526Z,32.52
2022-09-15T08:37:58.911Z,31.74
2022-09-15T08:43:13.478Z,33.76
2022-09-15T08:48:21.465Z,32.87
2022-09-15T08:53:30.697Z,33.35
2022-09-15T08:58:37.785Z,33.97
2022-09-15T09:03:59.835Z,34.44
2022-09-15T09:09:17.075Z,33.33
2022-09-15T09:14:33.924Z,32.77
2022-09-15T09:19:58.910Z,31.00
2022-09-15T09:25:21.246Z,29.13
2022-09-15T09:30:34.127Z,28.51
2022-09-15T09:35:45.045Z,28.58
2022-09-15T09:40:50.925Z,29.09
2022-09-15T09:45:55.236Z,29.23
2022-09-15T09:50:59.241Z,29.94
2022-09-15T09:56:26.172Z,29.30
2022-09-15T10:01:30.883Z,28.68
2022-09-15T10:06:34.943Z,27.55
2022-09-15T10:11:46.244Z,26.61
2022-09-15T10:17:02.118Z,27.18
2022-09-15T10:22:06.385Z,27.01
2022-09-15T10:27:20.607Z,27.04
2022-09-15T10:32:28.160Z,27.04
2022-09-15T10:37:36.347Z,26.75
2022-09-15T10:42:49.354Z,25.95
2022-09-15T10:48:10.044Z,26.58
2022-09-15T10:53:20.900Z,26.16
2022-09-15T10:58:45.878Z,25.17
2022-09-15T11:04:09.471Z,24.74
2022-09-15T11:09:20.012Z,24.66
2022-09-15T11:14:39.759Z,24.46
2022-09-15T11:20:02.592Z,24.17
2022-09-15T11:25:16.215Z,24.73
2022-09-15T11:30:24.423Z,22.68
2022-09-15T11:35:35.649Z,22.16
2022-09-15T11:40:43.458Z,24.05
2022-09-15T11:45:53.525Z,25.66
2022-09-15T11:51:02.477Z,27.30
2022-09-15T11:56:21.787Z,27.46
2022-09-15T12:01:34.174Z,27.80
2022-09-15T12:06:46.079Z,27.52
2022-09-15T12:11:53.911Z,28.36
2022-09-15T12:17:00.362Z,28.64
2022-09-15T12:22:14.994Z,28.90
2022-09-15T12:27:21.220Z,29.12
2022-09-15T12:32:28.865Z,27.39
2022-09-15T12:37:39.760Z,26.96
2022-09-15T12:42:46.721Z,26.90
2022-09-15T12:47:55.890Z,27.73
2022-09-15T12:53:02.176Z,27.22
2022-09-15T12:58:09.748Z,27.23
2022-09-15T13:03:49.978Z,27.16
2022-09-15T13:09:16.890Z,27.61
2022-09-15T13:14:29.063Z,26.85
2022-09-15T13:19:42.259Z,27.21
2022-09-15T13:24:49.812Z,27.22
2022-09-15T13:30:02.577Z,25.78
2022-09-15T13:35:29.878Z,25.66
2022-09-15T13:40:59.803Z,25.23
2022-09-15T13:46:20.740Z,25.51
2022-09-15T13:51:29.446Z,26.17
2022-09-15T13:56:38.006Z,26.38
2022-09-15T14:01:44.947Z,26.16
2022-09-15T14:06:52.287Z,26.97
2022-09-15T14:12:00.258Z,26.61
2022-09-15T14:17:05.584Z,27.42
2022-09-15T14:22:26.270Z,27.27
2022-09-15T14:27:33.363Z,27.00
2022-09-15T14:32:40.242Z,27.40
2022-09-15T14:37:49.899Z,26.85
2022-09-15T14:42:53.818Z,28.10
2022-09-15T14:48:04.431Z,27.45
2022-09-15T14:53:11.625Z,27.68
2022-09-15T14:58:22.423Z,27.52
2022-09-15T15:03:35.628Z,27.23
2022-09-15T15:08:43.985Z,27.02
2022-09-15T15:13:51.143Z,27.92
2022-09-15T15:18:57.285Z,28.25
2022-09-15T15:24:01.975Z,29.23
2022-09-15T15:29:09.786Z,30.03
2022-09-15T15:34:24.536Z,30.42
2022-09-15T15:39:29.422Z,31.30
2022-09-15T15:44:33.913Z,32.37
2022-09-15T15:49:46.188Z,32.36
2022-09-15T15:54:50.143Z,35.53
2022-09-15T15:59:57.538Z,35.91
2022-09-15T16:05:02.760Z,38.57
2022-09-15T16:10:08.286Z,39.97
2022-09-15T16:15:14.622Z,40.90
2022-09-15T16:20:23.441Z,41.29
2022-09-15T16:25:36.468Z,42.42
2022-09-15T16:30:40.308Z,44.14
2022-09-15T16:35:51.192Z,45.15
2022-09-15T16:40:55.971Z,46.20
2022-09-15T16:45:59.890Z,47.35
2022-09-15T16:51:27.416Z,47.78
2022-09-15T16:56:29.649Z,48.88
2022-09-15T17:01:33.920Z,50.01
2022-09-15T17:06:39.182Z,50.74
2022-09-15T17:11:43.428Z,50.96
2022-09-15T17:16:52.700Z,50.97
2022-09-15T17:21:57.993Z,51.10
2022-09-15T17:27:01.802Z,52.53
2022-09-15T17:32:06.260Z,54.38
2022-09-15T17:37:12.305Z,53.52
2022-09-15T17:42:16.148Z,53.73
2022-09-15T17:47:19.994Z,53.96
2022-09-15T17:52:25.203Z,53.83
2022-09-15T17:57:29.021Z,55.19
2022-09-15T18:02:33.247Z,55.53
2022-09-15T18:07:38.782Z,55.24
2022-09-15T18:12:47.329Z,55.21
2022-09-15T18:17:55.475Z,55.01
2022-09-15T18:23:02.703Z,54.72
2022-09-15T18:28:06.594Z,54.55
2022-09-15T18:33:15.269Z,54.86
2022-09-15T18:38:20.526Z,55.53
2022-09-15T18:43:26.723Z,55.71
2022-09-15T18:48:31.365Z,56.41
2022-09-15T18:53:37.954Z,56.13
2022-09-15T18:58:42.874Z,56.78
2022-09-15T19:03:47.609Z,56.67
2022-09-15T19:08:52.920Z,56.92
2022-09-15T19:13:56.923Z,56.49
2022-09-15T19:19:01.351Z,56.65
2022-09-15T19:24:06.715Z,56.09
2022-09-15T19:29:11.120Z,56.06
2022-09-15T19:34:16.210Z,56.60
2022-09-15T19:39:21.432Z,55.57
2022-09-15T19:44:25.402Z,56.13
2022-09-15T19:49:29.223Z,56.30
2022-09-15T19:54:34.518Z,57.14
2022-09-15T19:59:38.509Z,57.39
2022-09-15T20:04:43.690Z,56.83
2022-09-15T20:09:49.086Z,56.81
2022-09-15T20:14:53.143Z,56.25
2022-09-15T20:19:58.107Z,57.01
2022-09-15T20:25:03.434Z,56.51
2022-09-15T20:30:08.610Z,57.63
2022-09-15T20:35:12.385Z,57.58
2022-09-15T20:40:18.302Z,58.76
2022-09-15T20:45:22.252Z,59.54
2022-09-15T20:50:27.376Z,58.62
2022-09-15T20:55:33.267Z,59.27
2022-09-15T21:00:37.066Z,59.11
2022-09-15T21:05:41.095Z,59.16
2022-09-15T21:10:48.804Z,59.53
2022-09-15T21:15:57.909Z,59.33
2022-09-15T21:21:04.983Z,59.89
2022-09-15T21:26:12.094Z,61.00
2022-09-15T21:31:18.126Z,60.23
2022-09-15T21:36:24.835Z,60.24
2022-09-15T21:41:31.087Z,59.79
2022-09-15T21:46:35.154Z,59.95
2022-09-15T21:51:39.761Z,60.74
2022-09-15T21:56:45.667Z,60.74
2022-09-15T22:01:50.015Z,60.54
2022-09-15T22:06:54.075Z,61.43
2022-09-15T22:11:59.225Z,61.33
2022-09-15T22:17:03.035Z,61.09
2022-09-15T22:22:07.883Z,60.22
2022-09-15T22:27:13.217Z,61.08
2022-09-15T22:32:17.231Z,61.82
2022-09-15T22:37:21.138Z,61.16
2022-09-15T22:42:26.484Z,60.78
2022-09-15T22:47:30.558Z,60.48
2022-09-15T22:52:34.527Z,61.61
2022-09-15T22:57:39.810Z,62.95
2022-09-15T23:02:43.843Z,61.62
2022-09-15T23:07:47.671Z,62.55
2022-09-15T23:12:52.958Z,61.60
2022-09-15T23:17:58.112Z,61.93
2022-09-15T23:23:02.063Z,63.22
2022-09-15T23:28:07.291Z,63.99
2022-09-15T23:33:11.056Z,63.99
2022-09-15T23:38:14.988Z,63.71
2022-09-15T23:43:20.186Z,63.38
2022-09-15T23:48:25.215Z,63.01
2022-09-15T23:53:29.375Z,62.48
2022-09-15T23:58:34.650Z,64.37
